sensor_id;sensor_type;location;lat;lon;timestamp;pressure;altitude;pressure_sealevel;temperature;humidity
19596;BME280;9945;46.010;8.946;2023-05-22T00:01:51;97204.59;;;17.03;100.00
19596;BME280;9945;46.010;8.946;2023-05-22T00:04:20;97213.50;;;17.17;100.00
19596;BME280;9945;46.010;8.946;2023-05-22T00:06:48;97216.44;;;17.29;100.00
19596;BME280;9945;46.010;8.946;2023-05-22T00:09:15;97221.09;;;17.27;100.00
19596;BME280;9945;46.010;8.946;2023-05-22T00:11:42;97214.88;;;17.34;100.00
19596;BME280;9945;46.010;8.946;2023-05-22T00:14:09;97213.84;;;17.35;100.00
19596;BME280;9945;46.010;8.946;2023-05-22T00:16:37;97216.94;;;17.39;100.00
19596;BME280;9945;46.010;8.946;2023-05-22T00:19:04;97213.47;;;17.38;100.00
19596;BME280;9945;46.010;8.946;2023-05-22T00:21:32;97222.47;;;17.44;100.00
19596;BME280;9945;46.010;8.946;2023-05-22T00:24:00;97221.69;;;17.44;100.00
19596;BME280;9945;46.010;8.946;2023-05-22T00:26:28;97220.03;;;17.43;100.00
19596;BME280;9945;46.010;8.946;2023-05-22T00:28:55;97225.69;;;17.39;100.00
19596;BME280;9945;46.010;8.946;2023-05-22T00:31:22;97224.94;;;17.46;100.00
19596;BME280;9945;46.010;8.946;2023-05-22T00:33:49;97218.91;;;17.52;100.00
19596;BME280;9945;46.010;8.946;2023-05-22T00:36:16;97214.97;;;17.48;100.00
19596;BME280;9945;46.010;8.946;2023-05-22T00:38:43;97210.69;;;17.47;100.00
19596;BME280;9945;46.010;8.946;2023-05-22T00:41:12;97210.13;;;17.51;100.00
19596;BME280;9945;46.010;8.946;2023-05-22T00:43:39;97193.88;;;17.61;99.84
19596;BME280;9945;46.010;8.946;2023-05-22T00:46:06;97202.88;;;17.60;99.84
19596;BME280;9945;46.010;8.946;2023-05-22T00:48:32;97205.44;;;17.53;100.00
19596;BME280;9945;46.010;8.946;2023-05-22T00:50:59;97204.63;;;17.53;100.00
19596;BME280;9945;46.010;8.946;2023-05-22T00:53:28;97215.59;;;17.50;100.00
19596;BME280;9945;46.010;8.946;2023-05-22T00:55:56;97221.31;;;17.53;100.00
19596;BME280;9945;46.010;8.946;2023-05-22T00:58:26;97229.47;;;17.52;100.00
19596;BME280;9945;46.010;8.946;2023-05-22T01:00:53;97237.44;;;17.52;100.00
19596;BME280;9945;46.010;8.946;2023-05-22T01:03:20;97223.91;;;17.47;100.00
19596;BME280;9945;46.010;8.946;2023-05-22T01:05:51;97224.69;;;17.40;100.00
19596;BME280;9945;46.010;8.946;2023-05-22T01:08:18;97219.72;;;17.52;100.00
19596;BME280;9945;46.010;8.946;2023-05-22T01:10:49;97221.69;;;17.44;100.00
19596;BME280;9945;46.010;8.946;2023-05-22T01:13:24;97203.53;;;17.19;100.00
19596;BME280;9945;46.010;8.946;2023-05-22T01:16:08;97210.31;;;17.28;100.00
19596;BME280;9945;46.010;8.946;2023-05-22T01:18:41;97223.81;;;17.33;100.00
19596;BME280;9945;46.010;8.946;2023-05-22T01:21:13;97224.78;;;17.26;100.00
19596;BME280;9945;46.010;8.946;2023-05-22T01:27:02;97212.81;;;17.09;100.00
19596;BME280;9945;46.010;8.946;2023-05-22T01:29:46;97202.91;;;16.96;100.00
19596;BME280;9945;46.010;8.946;2023-05-22T01:32:16;97198.88;;;17.00;100.00
19596;BME280;9945;46.010;8.946;2023-05-22T01:34:46;97202.72;;;16.97;100.00
19596;BME280;9945;46.010;8.946;2023-05-22T01:37:17;97195.28;;;17.08;100.00
19596;BME280;9945;46.010;8.946;2023-05-22T01:39:46;97195.34;;;17.14;100.00
19596;BME280;9945;46.010;8.946;2023-05-22T01:42:14;97196.16;;;17.15;100.00
19596;BME280;9945;46.010;8.946;2023-05-22T01:44:40;97205.09;;;17.14;100.00
19596;BME280;9945;46.010;8.946;2023-05-22T01:47:07;97203.94;;;16.80;100.00
19596;BME280;9945;46.010;8.946;2023-05-22T01:49:36;97204.59;;;16.82;100.00
19596;BME280;9945;46.010;8.946;2023-05-22T01:52:09;97196.97;;;16.73;100.00
19596;BME280;9945;46.010;8.946;2023-05-22T01:54:44;97190.16;;;16.85;100.00
19596;BME280;9945;46.010;8.946;2023-05-22T01:57:18;97184.44;;;17.02;100.00
19596;BME280;9945;46.010;8.946;2023-05-22T01:59:48;97181.78;;;17.02;100.00
19596;BME280;9945;46.010;8.946;2023-05-22T02:02:20;97190.00;;;17.08;100.00
19596;BME280;9945;46.010;8.946;2023-05-22T02:04:55;97192.81;;;17.06;100.00
19596;BME280;9945;46.010;8.946;2023-05-22T02:07:24;97191.00;;;17.07;100.00
19596;BME280;9945;46.010;8.946;2023-05-22T02:09:52;97185.88;;;17.05;100.00
19596;BME280;9945;46.010;8.946;2023-05-22T02:12:21;97191.50;;;16.95;100.00
19596;BME280;9945;46.010;8.946;2023-05-22T02:14:49;97184.31;;;16.89;100.00
19596;BME280;9945;46.010;8.946;2023-05-22T02:17:16;97194.53;;;16.92;100.00
19596;BME280;9945;46.010;8.946;2023-05-22T02:19:44;97194.59;;;16.99;100.00
19596;BME280;9945;46.010;8.946;2023-05-22T02:22:13;97190.66;;;16.95;100.00
19596;BME280;9945;46.010;8.946;2023-05-22T02:24:40;97194.72;;;16.91;100.00
19596;BME280;9945;46.010;8.946;2023-05-22T02:27:08;97189.91;;;16.80;100.00
19596;BME280;9945;46.010;8.946;2023-05-22T02:29:35;97190.91;;;16.79;100.00
19596;BME280;9945;46.010;8.946;2023-05-22T02:32:02;97186.44;;;16.79;100.00
19596;BME280;9945;46.010;8.946;2023-05-22T02:34:29;97198.19;;;16.91;100.00
19596;BME280;9945;46.010;8.946;2023-05-22T02:36:57;97189.34;;;16.84;100.00
19596;BME280;9945;46.010;8.946;2023-05-22T02:39:26;97188.16;;;16.87;100.00
19596;BME280;9945;46.010;8.946;2023-05-22T02:41:53;97187.78;;;16.90;100.00
19596;BME280;9945;46.010;8.946;2023-05-22T02:44:20;97191.06;;;16.92;100.00
19596;BME280;9945;46.010;8.946;2023-05-22T02:46:47;97195.97;;;16.95;100.00
19596;BME280;9945;46.010;8.946;2023-05-22T02:49:13;97195.78;;;16.96;100.00
19596;BME280;9945;46.010;8.946;2023-05-22T02:51:40;97196.41;;;16.98;100.00
19596;BME280;9945;46.010;8.946;2023-05-22T02:54:13;97189.66;;;16.96;100.00
19596;BME280;9945;46.010;8.946;2023-05-22T02:56:41;97194.19;;;17.02;100.00
19596;BME280;9945;46.010;8.946;2023-05-22T02:59:08;97192.94;;;16.98;100.00
19596;BME280;9945;46.010;8.946;2023-05-22T03:01:35;97193.94;;;16.97;100.00
19596;BME280;9945;46.010;8.946;2023-05-22T03:04:03;97197.25;;;16.99;100.00
19596;BME280;9945;46.010;8.946;2023-05-22T03:06:30;97189.13;;;17.00;100.00
19596;BME280;9945;46.010;8.946;2023-05-22T03:08:57;97183.81;;;17.00;100.00
19596;BME280;9945;46.010;8.946;2023-05-22T03:11:24;97199.69;;;17.00;100.00
19596;BME280;9945;46.010;8.946;2023-05-22T03:13:52;97196.91;;;16.87;100.00
19596;BME280;9945;46.010;8.946;2023-05-22T03:16:19;97205.91;;;16.93;100.00
19596;BME280;9945;46.010;8.946;2023-05-22T03:18:46;97212.28;;;16.62;100.00
19596;BME280;9945;46.010;8.946;2023-05-22T03:21:12;97214.19;;;16.54;100.00
19596;BME280;9945;46.010;8.946;2023-05-22T03:23:39;97212.50;;;16.17;100.00
19596;BME280;9945;46.010;8.946;2023-05-22T03:26:06;97213.06;;;15.98;100.00
19596;BME280;9945;46.010;8.946;2023-05-22T03:28:33;97218.06;;;16.22;100.00
19596;BME280;9945;46.010;8.946;2023-05-22T03:31:01;97218.03;;;16.37;100.00
19596;BME280;9945;46.010;8.946;2023-05-22T03:33:28;97213.59;;;16.37;100.00
19596;BME280;9945;46.010;8.946;2023-05-22T03:35:55;97216.94;;;16.46;100.00
19596;BME280;9945;46.010;8.946;2023-05-22T03:38:22;97225.94;;;16.51;100.00
19596;BME280;9945;46.010;8.946;2023-05-22T03:40:49;97220.75;;;16.58;100.00
19596;BME280;9945;46.010;8.946;2023-05-22T03:43:15;97225.84;;;16.59;100.00
19596;BME280;9945;46.010;8.946;2023-05-22T03:45:42;97229.53;;;16.58;100.00
19596;BME280;9945;46.010;8.946;2023-05-22T03:48:11;97230.16;;;16.46;100.00
19596;BME280;9945;46.010;8.946;2023-05-22T03:50:38;97221.16;;;16.40;100.00
19596;BME280;9945;46.010;8.946;2023-05-22T03:53:04;97231.91;;;16.39;100.00
19596;BME280;9945;46.010;8.946;2023-05-22T03:55:31;97231.34;;;16.43;100.00
19596;BME280;9945;46.010;8.946;2023-05-22T03:57:58;97230.69;;;16.56;100.00
19596;BME280;9945;46.010;8.946;2023-05-22T04:00:25;97242.38;;;16.61;100.00
19596;BME280;9945;46.010;8.946;2023-05-22T04:02:52;97236.63;;;16.58;100.00
19596;BME280;9945;46.010;8.946;2023-05-22T04:05:20;97241.28;;;16.56;100.00
19596;BME280;9945;46.010;8.946;2023-05-22T04:07:47;97259.88;;;16.62;100.00
19596;BME280;9945;46.010;8.946;2023-05-22T04:10:14;97260.41;;;16.73;100.00
19596;BME280;9945;46.010;8.946;2023-05-22T04:12:41;97262.88;;;16.74;100.00
19596;BME280;9945;46.010;8.946;2023-05-22T04:15:08;97270.34;;;16.71;100.00
19596;BME280;9945;46.010;8.946;2023-05-22T04:17:38;97271.72;;;16.81;100.00
19596;BME280;9945;46.010;8.946;2023-05-22T04:20:06;97275.19;;;16.82;100.00
19596;BME280;9945;46.010;8.946;2023-05-22T04:22:34;97279.47;;;16.83;100.00
19596;BME280;9945;46.010;8.946;2023-05-22T04:25:04;97290.47;;;16.86;100.00
19596;BME280;9945;46.010;8.946;2023-05-22T04:27:31;97285.97;;;17.01;100.00
19596;BME280;9945;46.010;8.946;2023-05-22T04:29:59;97291.56;;;16.92;100.00
19596;BME280;9945;46.010;8.946;2023-05-22T04:32:26;97284.28;;;16.79;100.00
19596;BME280;9945;46.010;8.946;2023-05-22T04:34:54;97294.34;;;16.84;100.00
19596;BME280;9945;46.010;8.946;2023-05-22T04:37:22;97298.50;;;16.78;100.00
19596;BME280;9945;46.010;8.946;2023-05-22T04:39:52;97299.81;;;16.82;100.00
19596;BME280;9945;46.010;8.946;2023-05-22T04:42:22;97296.69;;;16.79;100.00
19596;BME280;9945;46.010;8.946;2023-05-22T04:44:52;97309.28;;;16.91;100.00
19596;BME280;9945;46.010;8.946;2023-05-22T04:47:22;97310.16;;;16.98;100.00
19596;BME280;9945;46.010;8.946;2023-05-22T04:49:49;97315.47;;;16.98;100.00
19596;BME280;9945;46.010;8.946;2023-05-22T04:52:16;97321.56;;;16.99;100.00
19596;BME280;9945;46.010;8.946;2023-05-22T04:54:43;97320.63;;;17.07;100.00
19596;BME280;9945;46.010;8.946;2023-05-22T04:57:12;97317.81;;;17.08;100.00
19596;BME280;9945;46.010;8.946;2023-05-22T04:59:39;97317.41;;;17.11;100.00
19596;BME280;9945;46.010;8.946;2023-05-22T05:02:06;97313.59;;;17.14;100.00
19596;BME280;9945;46.010;8.946;2023-05-22T05:04:33;97310.75;;;17.15;100.00
19596;BME280;9945;46.010;8.946;2023-05-22T05:07:00;97314.41;;;17.14;100.00
19596;BME280;9945;46.010;8.946;2023-05-22T05:09:28;97306.94;;;17.18;100.00
19596;BME280;9945;46.010;8.946;2023-05-22T05:11:55;97301.25;;;17.21;100.00
19596;BME280;9945;46.010;8.946;2023-05-22T05:14:24;97306.28;;;17.16;100.00
19596;BME280;9945;46.010;8.946;2023-05-22T05:16:51;97301.00;;;17.16;100.00
19596;BME280;9945;46.010;8.946;2023-05-22T05:19:18;97299.00;;;17.18;100.00
19596;BME280;9945;46.010;8.946;2023-05-22T05:21:46;97293.88;;;17.16;100.00
19596;BME280;9945;46.010;8.946;2023-05-22T05:24:14;97292.88;;;17.17;100.00
19596;BME280;9945;46.010;8.946;2023-05-22T05:26:41;97281.06;;;17.20;100.00
19596;BME280;9945;46.010;8.946;2023-05-22T05:29:08;97281.91;;;17.20;100.00
19596;BME280;9945;46.010;8.946;2023-05-22T05:31:36;97285.44;;;17.27;100.00
19596;BME280;9945;46.010;8.946;2023-05-22T05:34:03;97276.50;;;17.28;100.00
19596;BME280;9945;46.010;8.946;2023-05-22T05:36:30;97268.72;;;17.27;100.00
19596;BME280;9945;46.010;8.946;2023-05-22T05:38:56;97272.00;;;17.29;100.00
19596;BME280;9945;46.010;8.946;2023-05-22T05:41:24;97262.25;;;17.29;100.00
19596;BME280;9945;46.010;8.946;2023-05-22T05:43:51;97261.06;;;17.32;100.00
19596;BME280;9945;46.010;8.946;2023-05-22T05:46:21;97262.94;;;17.38;100.00
19596;BME280;9945;46.010;8.946;2023-05-22T05:48:50;97261.75;;;17.40;100.00
19596;BME280;9945;46.010;8.946;2023-05-22T05:51:17;97268.06;;;17.39;100.00
19596;BME280;9945;46.010;8.946;2023-05-22T05:53:45;97258.75;;;17.44;100.00
19596;BME280;9945;46.010;8.946;2023-05-22T05:56:12;97253.81;;;17.40;100.00
19596;BME280;9945;46.010;8.946;2023-05-22T05:58:39;97253.66;;;17.27;100.00
19596;BME280;9945;46.010;8.946;2023-05-22T06:01:06;97260.78;;;17.27;100.00
19596;BME280;9945;46.010;8.946;2023-05-22T06:03:33;97254.81;;;17.18;100.00
19596;BME280;9945;46.010;8.946;2023-05-22T06:06:01;97252.84;;;17.27;100.00
19596;BME280;9945;46.010;8.946;2023-05-22T06:08:29;97257.34;;;17.26;100.00
19596;BME280;9945;46.010;8.946;2023-05-22T06:10:56;97256.13;;;17.29;100.00
19596;BME280;9945;46.010;8.946;2023-05-22T06:13:23;97255.78;;;17.32;100.00
19596;BME280;9945;46.010;8.946;2023-05-22T06:15:50;97263.44;;;17.27;100.00
19596;BME280;9945;46.010;8.946;2023-05-22T06:18:17;97256.91;;;17.23;100.00
19596;BME280;9945;46.010;8.946;2023-05-22T06:20:44;97259.22;;;17.32;100.00
19596;BME280;9945;46.010;8.946;2023-05-22T06:23:12;97260.78;;;17.27;100.00
19596;BME280;9945;46.010;8.946;2023-05-22T06:25:39;97260.78;;;17.27;100.00
19596;BME280;9945;46.010;8.946;2023-05-22T06:28:05;97266.16;;;17.33;100.00
19596;BME280;9945;46.010;8.946;2023-05-22T06:30:32;97262.53;;;17.34;100.00
19596;BME280;9945;46.010;8.946;2023-05-22T06:32:59;97268.19;;;17.31;100.00
19596;BME280;9945;46.010;8.946;2023-05-22T06:35:26;97264.22;;;17.42;100.00
19596;BME280;9945;46.010;8.946;2023-05-22T06:37:53;97259.88;;;17.34;100.00
19596;BME280;9945;46.010;8.946;2023-05-22T06:40:21;97252.53;;;17.36;100.00
19596;BME280;9945;46.010;8.946;2023-05-22T06:42:48;97253.44;;;17.44;100.00
19596;BME280;9945;46.010;8.946;2023-05-22T06:45:15;97252.13;;;17.61;100.00
19596;BME280;9945;46.010;8.946;2023-05-22T06:47:44;97247.56;;;17.48;100.00
19596;BME280;9945;46.010;8.946;2023-05-22T06:50:10;97244.34;;;17.53;100.00
19596;BME280;9945;46.010;8.946;2023-05-22T06:52:37;97244.31;;;17.67;100.00
19596;BME280;9945;46.010;8.946;2023-05-22T06:55:05;97241.22;;;17.64;100.00
19596;BME280;9945;46.010;8.946;2023-05-22T06:57:33;97241.38;;;17.62;100.00
19596;BME280;9945;46.010;8.946;2023-05-22T07:00:00;97244.69;;;17.64;100.00
19596;BME280;9945;46.010;8.946;2023-05-22T07:02:27;97242.41;;;17.40;100.00
19596;BME280;9945;46.010;8.946;2023-05-22T07:04:54;97242.09;;;17.50;100.00
19596;BME280;9945;46.010;8.946;2023-05-22T07:07:20;97247.13;;;17.66;100.00
19596;BME280;9945;46.010;8.946;2023-05-22T07:09:47;97241.69;;;17.53;100.00
19596;BME280;9945;46.010;8.946;2023-05-22T07:12:14;97244.88;;;17.63;100.00
19596;BME280;9945;46.010;8.946;2023-05-22T07:14:42;97240.75;;;17.60;100.00
19596;BME280;9945;46.010;8.946;2023-05-22T07:17:09;97245.13;;;17.68;100.00
19596;BME280;9945;46.010;8.946;2023-05-22T07:19:36;97238.88;;;17.75;100.00
19596;BME280;9945;46.010;8.946;2023-05-22T07:22:03;97245.22;;;17.81;100.00
19596;BME280;9945;46.010;8.946;2023-05-22T07:24:30;97235.09;;;17.91;100.00
19596;BME280;9945;46.010;8.946;2023-05-22T07:26:56;97232.66;;;17.90;100.00
19596;BME280;9945;46.010;8.946;2023-05-22T07:29:23;97236.63;;;18.07;100.00
19596;BME280;9945;46.010;8.946;2023-05-22T07:31:51;97237.81;;;18.04;100.00
19596;BME280;9945;46.010;8.946;2023-05-22T07:34:18;97234.00;;;18.13;100.00
19596;BME280;9945;46.010;8.946;2023-05-22T07:36:45;97237.28;;;18.15;100.00
19596;BME280;9945;46.010;8.946;2023-05-22T07:39:12;97237.38;;;18.29;100.00
19596;BME280;9945;46.010;8.946;2023-05-22T07:41:39;97235.81;;;18.47;100.00
19596;BME280;9945;46.010;8.946;2023-05-22T07:44:06;97230.44;;;18.69;100.00
19596;BME280;9945;46.010;8.946;2023-05-22T07:46:33;97228.44;;;18.71;100.00
19596;BME280;9945;46.010;8.946;2023-05-22T07:49:03;97232.31;;;18.81;100.00
19596;BME280;9945;46.010;8.946;2023-05-22T07:51:30;97221.75;;;18.88;100.00
19596;BME280;9945;46.010;8.946;2023-05-22T07:53:57;97224.03;;;19.11;100.00
19596;BME280;9945;46.010;8.946;2023-05-22T07:56:24;97219.75;;;19.03;100.00
19596;BME280;9945;46.010;8.946;2023-05-22T07:58:51;97220.38;;;19.18;100.00
19596;BME280;9945;46.010;8.946;2023-05-22T08:01:18;97214.25;;;19.18;100.00
19596;BME280;9945;46.010;8.946;2023-05-22T08:03:45;97213.03;;;19.34;100.00
19596;BME280;9945;46.010;8.946;2023-05-22T08:06:13;97216.16;;;19.63;100.00
19596;BME280;9945;46.010;8.946;2023-05-22T08:08:42;97212.69;;;19.70;100.00
19596;BME280;9945;46.010;8.946;2023-05-22T08:11:09;97212.44;;;19.91;100.00
19596;BME280;9945;46.010;8.946;2023-05-22T08:13:36;97209.38;;;20.07;100.00
19596;BME280;9945;46.010;8.946;2023-05-22T08:16:03;97208.50;;;20.20;100.00
19596;BME280;9945;46.010;8.946;2023-05-22T08:18:30;97198.25;;;20.30;100.00
19596;BME280;9945;46.010;8.946;2023-05-22T08:20:57;97200.72;;;20.18;100.00
19596;BME280;9945;46.010;8.946;2023-05-22T08:23:27;97190.06;;;20.31;100.00
19596;BME280;9945;46.010;8.946;2023-05-22T08:25:54;97194.34;;;20.46;100.00
19596;BME280;9945;46.010;8.946;2023-05-22T08:28:21;97192.22;;;20.61;99.49
19596;BME280;9945;46.010;8.946;2023-05-22T08:30:49;97188.72;;;20.67;98.74
19596;BME280;9945;46.010;8.946;2023-05-22T08:33:16;97190.50;;;20.80;97.74
19596;BME280;9945;46.010;8.946;2023-05-22T08:35:44;97182.47;;;20.86;96.84
19596;BME280;9945;46.010;8.946;2023-05-22T08:38:10;97175.53;;;20.41;100.00
19596;BME280;9945;46.010;8.946;2023-05-22T08:40:39;97185.00;;;20.10;100.00
19596;BME280;9945;46.010;8.946;2023-05-22T08:43:06;97174.09;;;20.25;100.00
19596;BME280;9945;46.010;8.946;2023-05-22T08:45:33;97172.56;;;20.04;100.00
19596;BME280;9945;46.010;8.946;2023-05-22T08:48:03;97170.44;;;20.39;100.00
19596;BME280;9945;46.010;8.946;2023-05-22T08:50:31;97173.50;;;20.36;100.00
19596;BME280;9945;46.010;8.946;2023-05-22T08:53:00;97171.41;;;20.45;98.35
19596;BME280;9945;46.010;8.946;2023-05-22T08:55:27;97174.81;;;20.65;93.61
19596;BME280;9945;46.010;8.946;2023-05-22T08:57:57;97164.94;;;20.72;89.19
19596;BME280;9945;46.010;8.946;2023-05-22T09:00:24;97166.91;;;20.90;85.40
19596;BME280;9945;46.010;8.946;2023-05-22T09:02:51;97168.63;;;20.71;86.16
19596;BME280;9945;46.010;8.946;2023-05-22T09:05:20;97167.66;;;20.97;84.85
19596;BME280;9945;46.010;8.946;2023-05-22T09:07:51;97167.81;;;21.08;82.71
19596;BME280;9945;46.010;8.946;2023-05-22T09:10:18;97167.53;;;21.17;83.03
19596;BME280;9945;46.010;8.946;2023-05-22T09:13:02;97162.13;;;21.30;82.49
19596;BME280;9945;46.010;8.946;2023-05-22T09:15:29;97160.84;;;21.39;83.44
19596;BME280;9945;46.010;8.946;2023-05-22T09:17:56;97161.53;;;21.52;82.38
19596;BME280;9945;46.010;8.946;2023-05-22T09:20:23;97158.38;;;21.62;81.70
19596;BME280;9945;46.010;8.946;2023-05-22T09:22:50;97157.56;;;21.62;79.59
19596;BME280;9945;46.010;8.946;2023-05-22T09:25:18;97148.69;;;21.68;77.98
19596;BME280;9945;46.010;8.946;2023-05-22T09:27:45;97152.22;;;21.62;79.55
19596;BME280;9945;46.010;8.946;2023-05-22T09:30:16;97147.16;;;21.78;81.64
19596;BME280;9945;46.010;8.946;2023-05-22T09:32:43;97149.97;;;21.83;83.89
19596;BME280;9945;46.010;8.946;2023-05-22T09:35:11;97153.50;;;21.59;90.12
19596;BME280;9945;46.010;8.946;2023-05-22T09:37:39;97151.31;;;21.74;91.88
19596;BME280;9945;46.010;8.946;2023-05-22T09:40:08;97155.84;;;21.92;90.59
19596;BME280;9945;46.010;8.946;2023-05-22T09:42:36;97156.72;;;22.11;89.40
19596;BME280;9945;46.010;8.946;2023-05-22T09:45:03;97149.22;;;22.19;89.47
19596;BME280;9945;46.010;8.946;2023-05-22T09:47:32;97151.81;;;22.08;87.55
19596;BME280;9945;46.010;8.946;2023-05-22T09:50:02;97139.78;;;21.99;85.46
19596;BME280;9945;46.010;8.946;2023-05-22T09:52:32;97148.66;;;21.93;86.02
19596;BME280;9945;46.010;8.946;2023-05-22T09:55:02;97146.47;;;22.08;86.77
19596;BME280;9945;46.010;8.946;2023-05-22T09:57:31;97140.53;;;22.06;84.88
19596;BME280;9945;46.010;8.946;2023-05-22T09:59:59;97148.53;;;22.06;84.48
19596;BME280;9945;46.010;8.946;2023-05-22T10:02:37;97144.44;;;22.03;83.60
19596;BME280;9945;46.010;8.946;2023-05-22T10:05:05;97145.78;;;21.94;83.73
19596;BME280;9945;46.010;8.946;2023-05-22T10:07:35;97144.25;;;21.80;85.42
19596;BME280;9945;46.010;8.946;2023-05-22T10:10:06;97138.44;;;21.89;84.14
19596;BME280;9945;46.010;8.946;2023-05-22T10:12:39;97140.00;;;21.97;84.65
19596;BME280;9945;46.010;8.946;2023-05-22T10:15:09;97137.13;;;21.99;84.52
19596;BME280;9945;46.010;8.946;2023-05-22T10:17:38;97143.50;;;21.98;82.02
19596;BME280;9945;46.010;8.946;2023-05-22T10:20:07;97132.19;;;22.02;80.52
19596;BME280;9945;46.010;8.946;2023-05-22T10:22:35;97141.19;;;21.58;79.71
19596;BME280;9945;46.010;8.946;2023-05-22T10:25:03;97140.88;;;21.48;81.08
19596;BME280;9945;46.010;8.946;2023-05-22T10:27:31;97142.13;;;21.88;76.12
19596;BME280;9945;46.010;8.946;2023-05-22T10:30:05;97136.72;;;21.95;77.57
19596;BME280;9945;46.010;8.946;2023-05-22T10:32:40;97147.28;;;22.26;76.32
19596;BME280;9945;46.010;8.946;2023-05-22T10:35:17;97145.44;;;22.57;76.93
19596;BME280;9945;46.010;8.946;2023-05-22T10:37:48;97135.00;;;22.55;76.42
19596;BME280;9945;46.010;8.946;2023-05-22T10:40:20;97141.03;;;22.81;76.17
19596;BME280;9945;46.010;8.946;2023-05-22T10:42:56;97135.88;;;22.97;75.39
19596;BME280;9945;46.010;8.946;2023-05-22T10:45:25;97131.34;;;22.98;73.41
19596;BME280;9945;46.010;8.946;2023-05-22T10:48:02;97125.47;;;23.19;72.59
19596;BME280;9945;46.010;8.946;2023-05-22T10:50:29;97126.56;;;23.42;73.61
19596;BME280;9945;46.010;8.946;2023-05-22T10:53:19;97128.69;;;23.51;70.27
19596;BME280;9945;46.010;8.946;2023-05-22T10:55:46;97124.28;;;23.68;71.14
19596;BME280;9945;46.010;8.946;2023-05-22T10:58:14;97128.53;;;24.04;73.69
19596;BME280;9945;46.010;8.946;2023-05-22T11:00:41;97120.84;;;24.08;66.49
19596;BME280;9945;46.010;8.946;2023-05-22T11:03:10;97124.56;;;24.19;65.16
19596;BME280;9945;46.010;8.946;2023-05-22T11:05:37;97115.81;;;24.35;63.35
19596;BME280;9945;46.010;8.946;2023-05-22T11:08:09;97112.44;;;24.39;61.37
19596;BME280;9945;46.010;8.946;2023-05-22T11:10:52;97116.97;;;24.67;60.57
19596;BME280;9945;46.010;8.946;2023-05-22T11:13:19;97109.75;;;24.68;57.62
19596;BME280;9945;46.010;8.946;2023-05-22T11:15:47;97110.31;;;24.70;55.50
19596;BME280;9945;46.010;8.946;2023-05-22T11:18:15;97109.94;;;24.78;55.58
19596;BME280;9945;46.010;8.946;2023-05-22T11:20:42;97098.72;;;24.64;53.97
19596;BME280;9945;46.010;8.946;2023-05-22T11:23:10;97090.28;;;24.72;52.95
19596;BME280;9945;46.010;8.946;2023-05-22T11:25:39;97093.63;;;24.79;53.01
19596;BME280;9945;46.010;8.946;2023-05-22T11:28:06;97090.94;;;24.79;53.46
19596;BME280;9945;46.010;8.946;2023-05-22T11:30:35;97098.81;;;24.86;53.25
19596;BME280;9945;46.010;8.946;2023-05-22T11:33:03;97099.06;;;24.84;53.61
19596;BME280;9945;46.010;8.946;2023-05-22T11:35:32;97093.28;;;25.04;56.89
19596;BME280;9945;46.010;8.946;2023-05-22T11:38:01;97093.53;;;24.74;52.48
19596;BME280;9945;46.010;8.946;2023-05-22T11:40:29;97084.34;;;24.70;52.42
19596;BME280;9945;46.010;8.946;2023-05-22T11:42:56;97081.84;;;24.80;52.07
19596;BME280;9945;46.010;8.946;2023-05-22T11:45:23;97087.97;;;24.93;53.54
19596;BME280;9945;46.010;8.946;2023-05-22T11:47:50;97086.47;;;25.30;54.28
19596;BME280;9945;46.010;8.946;2023-05-22T11:50:17;97083.53;;;25.32;53.11
19596;BME280;9945;46.010;8.946;2023-05-22T11:52:45;97078.34;;;25.42;52.41
19596;BME280;9945;46.010;8.946;2023-05-22T11:55:12;97074.81;;;25.58;52.06
19596;BME280;9945;46.010;8.946;2023-05-22T11:57:39;97070.50;;;25.57;51.00
19596;BME280;9945;46.010;8.946;2023-05-22T12:00:07;97065.81;;;25.31;48.51
19596;BME280;9945;46.010;8.946;2023-05-22T12:02:34;97066.44;;;25.54;48.39
19596;BME280;9945;46.010;8.946;2023-05-22T12:05:01;97056.72;;;25.48;48.15
19596;BME280;9945;46.010;8.946;2023-05-22T12:07:28;97069.25;;;25.43;48.73
19596;BME280;9945;46.010;8.946;2023-05-22T12:09:57;97062.72;;;25.39;48.33
19596;BME280;9945;46.010;8.946;2023-05-22T12:12:25;97065.63;;;25.54;47.97
19596;BME280;9945;46.010;8.946;2023-05-22T12:14:52;97065.88;;;25.36;48.70
19596;BME280;9945;46.010;8.946;2023-05-22T12:17:19;97065.06;;;25.69;49.08
19596;BME280;9945;46.010;8.946;2023-05-22T12:19:46;97051.66;;;25.69;47.72
19596;BME280;9945;46.010;8.946;2023-05-22T12:22:13;97050.00;;;25.84;47.15
19596;BME280;9945;46.010;8.946;2023-05-22T12:24:40;97052.91;;;25.83;47.60
19596;BME280;9945;46.010;8.946;2023-05-22T12:27:12;97045.78;;;25.55;46.52
19596;BME280;9945;46.010;8.946;2023-05-22T12:29:40;97050.91;;;25.56;45.60
19596;BME280;9945;46.010;8.946;2023-05-22T12:32:08;97049.53;;;25.71;44.79
19596;BME280;9945;46.010;8.946;2023-05-22T12:34:41;97044.28;;;25.81;45.23
19596;BME280;9945;46.010;8.946;2023-05-22T12:37:17;97050.03;;;25.89;45.46
19596;BME280;9945;46.010;8.946;2023-05-22T12:39:52;97048.13;;;25.85;45.06
19596;BME280;9945;46.010;8.946;2023-05-22T12:42:20;97043.19;;;25.77;44.02
19596;BME280;9945;46.010;8.946;2023-05-22T12:44:51;97044.88;;;25.83;44.60
19596;BME280;9945;46.010;8.946;2023-05-22T12:47:18;97051.66;;;25.90;44.76
19596;BME280;9945;46.010;8.946;2023-05-22T12:49:45;97049.31;;;25.94;44.71
19596;BME280;9945;46.010;8.946;2023-05-22T12:52:11;97042.56;;;25.91;43.71
19596;BME280;9945;46.010;8.946;2023-05-22T12:54:38;97040.69;;;25.92;43.41
19596;BME280;9945;46.010;8.946;2023-05-22T12:57:05;97038.50;;;25.89;43.93
19596;BME280;9945;46.010;8.946;2023-05-22T12:59:33;97043.78;;;26.06;44.36
19596;BME280;9945;46.010;8.946;2023-05-22T13:02:01;97042.25;;;26.10;44.42
19596;BME280;9945;46.010;8.946;2023-05-22T13:04:30;97042.88;;;26.17;43.87
19596;BME280;9945;46.010;8.946;2023-05-22T13:06:57;97033.38;;;26.31;44.61
19596;BME280;9945;46.010;8.946;2023-05-22T13:09:24;97038.56;;;26.16;43.49
19596;BME280;9945;46.010;8.946;2023-05-22T13:11:50;97033.31;;;26.04;44.53
19596;BME280;9945;46.010;8.946;2023-05-22T13:14:17;97034.38;;;26.25;45.19